sensor_id;sensor_type;location;lat;lon;timestamp;P1;durP1;ratioP1;P2;durP2;ratioP2
12220;SDS011;6173;42.024;23.096;2022-09-01T00:01:15;12.77;;;10.50;;
12220;SDS011;6173;42.024;23.096;2022-09-01T00:03:46;17.03;;;10.83;;
12220;SDS011;6173;42.024;23.096;2022-09-01T00:06:14;13.90;;;11.43;;
12220;SDS011;6173;42.024;23.096;2022-09-01T00:08:46;13.90;;;11.10;;
12220;SDS011;6173;42.024;23.096;2022-09-01T00:11:13;12.93;;;10.90;;
12220;SDS011;6173;42.024;23.096;2022-09-01T00:13:40;16.83;;;10.77;;
12220;SDS011;6173;42.024;23.096;2022-09-01T00:16:07;13.17;;;10.87;;
12220;SDS011;6173;42.024;23.096;2022-09-01T00:18:38;13.77;;;11.43;;
12220;SDS011;6173;42.024;23.096;2022-09-01T00:21:06;12.57;;;11.27;;
12220;SDS011;6173;42.024;23.096;2022-09-01T00:23:34;14.37;;;11.13;;
12220;SDS011;6173;42.024;23.096;2022-09-01T00:26:02;18.87;;;11.77;;
12220;SDS011;6173;42.024;23.096;2022-09-01T00:28:28;15.80;;;11.30;;
12220;SDS011;6173;42.024;23.096;2022-09-01T00:30:57;16.70;;;11.43;;
12220;SDS011;6173;42.024;23.096;2022-09-01T00:33:24;17.33;;;11.43;;
12220;SDS011;6173;42.024;23.096;2022-09-01T00:35:51;16.37;;;12.10;;
12220;SDS011;6173;42.024;23.096;2022-09-01T00:38:18;19.93;;;12.53;;
12220;SDS011;6173;42.024;23.096;2022-09-01T00:40:46;16.90;;;12.70;;
12220;SDS011;6173;42.024;23.096;2022-09-01T00:43:14;12.37;;;11.03;;
12220;SDS011;6173;42.024;23.096;2022-09-01T00:45:45;15.73;;;12.40;;
12220;SDS011;6173;42.024;23.096;2022-09-01T00:48:13;12.50;;;11.20;;
12220;SDS011;6173;42.024;23.096;2022-09-01T00:50:41;13.50;;;11.40;;
12220;SDS011;6173;42.024;23.096;2022-09-01T00:53:08;13.77;;;11.70;;
12220;SDS011;6173;42.024;23.096;2022-09-01T00:55:35;14.57;;;11.97;;
12220;SDS011;6173;42.024;23.096;2022-09-01T00:58:05;18.03;;;11.70;;
12220;SDS011;6173;42.024;23.096;2022-09-01T01:00:34;18.60;;;14.73;;
12220;SDS011;6173;42.024;23.096;2022-09-01T01:03:05;19.33;;;15.87;;
12220;SDS011;6173;42.024;23.096;2022-09-01T01:05:35;19.53;;;15.27;;
12220;SDS011;6173;42.024;23.096;2022-09-01T01:08:05;15.63;;;14.03;;
12220;SDS011;6173;42.024;23.096;2022-09-01T01:10:36;16.47;;;12.83;;
12220;SDS011;6173;42.024;23.096;2022-09-01T01:13:07;13.90;;;12.40;;
12220;SDS011;6173;42.024;23.096;2022-09-01T01:15:37;13.03;;;11.73;;
12220;SDS011;6173;42.024;23.096;2022-09-01T01:18:05;15.93;;;11.17;;
12220;SDS011;6173;42.024;23.096;2022-09-01T01:20:31;14.00;;;11.87;;
12220;SDS011;6173;42.024;23.096;2022-09-01T01:23:20;14.47;;;12.97;;
12220;SDS011;6173;42.024;23.096;2022-09-01T01:25:57;15.70;;;12.43;;
12220;SDS011;6173;42.024;23.096;2022-09-01T01:28:26;14.83;;;12.47;;
12220;SDS011;6173;42.024;23.096;2022-09-01T01:30:55;13.83;;;12.53;;
12220;SDS011;6173;42.024;23.096;2022-09-01T01:33:26;15.70;;;12.93;;
12220;SDS011;6173;42.024;23.096;2022-09-01T01:35:55;14.77;;;12.07;;
12220;SDS011;6173;42.024;23.096;2022-09-01T01:38:22;16.33;;;11.33;;
12220;SDS011;6173;42.024;23.096;2022-09-01T01:40:49;16.73;;;11.73;;
12220;SDS011;6173;42.024;23.096;2022-09-01T01:43:19;12.30;;;10.93;;
12220;SDS011;6173;42.024;23.096;2022-09-01T01:45:47;12.67;;;11.37;;
12220;SDS011;6173;42.024;23.096;2022-09-01T01:48:16;12.77;;;11.03;;
12220;SDS011;6173;42.024;23.096;2022-09-01T01:50:49;17.00;;;11.73;;
12220;SDS011;6173;42.024;23.096;2022-09-01T01:53:16;14.60;;;11.57;;
12220;SDS011;6173;42.024;23.096;2022-09-01T01:55:44;14.83;;;11.63;;
12220;SDS011;6173;42.024;23.096;2022-09-01T01:58:12;14.67;;;11.63;;
12220;SDS011;6173;42.024;23.096;2022-09-01T02:00:41;13.70;;;11.83;;
12220;SDS011;6173;42.024;23.096;2022-09-01T02:03:11;11.97;;;10.67;;
12220;SDS011;6173;42.024;23.096;2022-09-01T02:05:41;12.83;;;11.47;;
12220;SDS011;6173;42.024;23.096;2022-09-01T02:08:09;14.43;;;12.13;;
12220;SDS011;6173;42.024;23.096;2022-09-01T02:10:38;17.93;;;12.27;;
12220;SDS011;6173;42.024;23.096;2022-09-01T02:13:06;13.47;;;12.07;;
12220;SDS011;6173;42.024;23.096;2022-09-01T02:15:42;23.13;;;16.57;;
12220;SDS011;6173;42.024;23.096;2022-09-01T02:18:12;26.87;;;19.30;;
12220;SDS011;6173;42.024;23.096;2022-09-01T02:20:42;58.03;;;23.90;;
12220;SDS011;6173;42.024;23.096;2022-09-01T02:23:10;39.87;;;23.03;;
12220;SDS011;6173;42.024;23.096;2022-09-01T02:25:42;37.70;;;23.93;;
12220;SDS011;6173;42.024;23.096;2022-09-01T02:28:11;40.13;;;24.13;;
12220;SDS011;6173;42.024;23.096;2022-09-01T02:30:41;54.47;;;25.40;;
12220;SDS011;6173;42.024;23.096;2022-09-01T02:33:09;35.67;;;24.13;;
12220;SDS011;6173;42.024;23.096;2022-09-01T02:35:42;39.50;;;24.63;;
12220;SDS011;6173;42.024;23.096;2022-09-01T02:38:09;39.33;;;24.47;;
12220;SDS011;6173;42.024;23.096;2022-09-01T02:40:38;32.43;;;24.40;;
12220;SDS011;6173;42.024;23.096;2022-09-01T02:43:07;35.43;;;23.40;;
12220;SDS011;6173;42.024;23.096;2022-09-01T02:45:36;44.73;;;23.97;;
12220;SDS011;6173;42.024;23.096;2022-09-01T02:48:05;30.70;;;21.47;;
12220;SDS011;6173;42.024;23.096;2022-09-01T02:50:34;27.17;;;18.13;;
12220;SDS011;6173;42.024;23.096;2022-09-01T02:53:01;28.50;;;17.33;;
12220;SDS011;6173;42.024;23.096;2022-09-01T02:55:30;23.47;;;17.50;;
12220;SDS011;6173;42.024;23.096;2022-09-01T02:57:57;22.70;;;17.33;;
12220;SDS011;6173;42.024;23.096;2022-09-01T03:00:24;26.40;;;17.60;;
12220;SDS011;6173;42.024;23.096;2022-09-01T03:02:56;22.50;;;17.13;;
12220;SDS011;6173;42.024;23.096;2022-09-01T03:05:28;22.87;;;15.80;;
12220;SDS011;6173;42.024;23.096;2022-09-01T03:07:59;22.50;;;16.90;;
12220;SDS011;6173;42.024;23.096;2022-09-01T03:10:29;19.77;;;16.83;;
12220;SDS011;6173;42.024;23.096;2022-09-01T03:13:00;29.03;;;17.90;;
12220;SDS011;6173;42.024;23.096;2022-09-01T03:15:30;28.63;;;17.73;;
12220;SDS011;6173;42.024;23.096;2022-09-01T03:17:58;23.37;;;17.03;;
12220;SDS011;6173;42.024;23.096;2022-09-01T03:20:28;22.53;;;17.03;;
12220;SDS011;6173;42.024;23.096;2022-09-01T03:22:57;27.73;;;17.10;;
12220;SDS011;6173;42.024;23.096;2022-09-01T03:25:24;24.73;;;18.43;;
12220;SDS011;6173;42.024;23.096;2022-09-01T03:27:52;30.17;;;19.43;;
12220;SDS011;6173;42.024;23.096;2022-09-01T03:30:19;29.33;;;19.53;;
12220;SDS011;6173;42.024;23.096;2022-09-01T03:32:46;29.23;;;18.57;;
12220;SDS011;6173;42.024;23.096;2022-09-01T03:35:14;28.27;;;18.03;;
12220;SDS011;6173;42.024;23.096;2022-09-01T03:37:43;29.47;;;19.67;;
12220;SDS011;6173;42.024;23.096;2022-09-01T03:40:10;25.87;;;18.73;;
12220;SDS011;6173;42.024;23.096;2022-09-01T03:42:38;27.53;;;17.33;;
12220;SDS011;6173;42.024;23.096;2022-09-01T03:45:05;24.53;;;17.87;;
12220;SDS011;6173;42.024;23.096;2022-09-01T03:47:37;21.90;;;17.50;;
12220;SDS011;6173;42.024;23.096;2022-09-01T03:50:05;27.73;;;17.27;;
12220;SDS011;6173;42.024;23.096;2022-09-01T03:52:36;21.57;;;16.93;;
12220;SDS011;6173;42.024;23.096;2022-09-01T03:55:07;25.37;;;17.90;;
12220;SDS011;6173;42.024;23.096;2022-09-01T03:57:34;27.97;;;15.83;;
12220;SDS011;6173;42.024;23.096;2022-09-01T04:00:02;23.13;;;15.37;;
12220;SDS011;6173;42.024;23.096;2022-09-01T04:02:31;15.93;;;14.23;;
12220;SDS011;6173;42.024;23.096;2022-09-01T04:04:58;16.37;;;14.10;;
12220;SDS011;6173;42.024;23.096;2022-09-01T04:07:25;19.40;;;14.77;;
12220;SDS011;6173;42.024;23.096;2022-09-01T04:09:53;19.47;;;15.60;;
12220;SDS011;6173;42.024;23.096;2022-09-01T04:12:21;18.17;;;15.07;;
12220;SDS011;6173;42.024;23.096;2022-09-01T04:14:49;23.37;;;15.50;;
12220;SDS011;6173;42.024;23.096;2022-09-01T04:17:16;18.93;;;14.03;;
12220;SDS011;6173;42.024;23.096;2022-09-01T04:20:00;25.67;;;15.93;;
12220;SDS011;6173;42.024;23.096;2022-09-01T04:22:32;21.93;;;16.67;;
12220;SDS011;6173;42.024;23.096;2022-09-01T04:25:02;24.40;;;16.47;;
12220;SDS011;6173;42.024;23.096;2022-09-01T04:27:31;18.03;;;15.97;;
12220;SDS011;6173;42.024;23.096;2022-09-01T04:29:58;29.63;;;15.93;;
12220;SDS011;6173;42.024;23.096;2022-09-01T04:32:25;19.20;;;15.03;;
12220;SDS011;6173;42.024;23.096;2022-09-01T04:34:52;17.07;;;12.93;;
12220;SDS011;6173;42.024;23.096;2022-09-01T04:37:20;16.50;;;12.30;;
12220;SDS011;6173;42.024;23.096;2022-09-01T04:39:48;16.50;;;12.33;;
12220;SDS011;6173;42.024;23.096;2022-09-01T04:42:16;16.47;;;11.17;;
12220;SDS011;6173;42.024;23.096;2022-09-01T04:44:47;15.43;;;11.33;;
12220;SDS011;6173;42.024;23.096;2022-09-01T04:47:13;13.73;;;12.40;;
12220;SDS011;6173;42.024;23.096;2022-09-01T04:49:41;15.17;;;12.87;;
12220;SDS011;6173;42.024;23.096;2022-09-01T04:52:09;16.67;;;13.30;;
12220;SDS011;6173;42.024;23.096;2022-09-01T04:54:37;17.43;;;13.00;;
12220;SDS011;6173;42.024;23.096;2022-09-01T04:57:04;19.03;;;13.13;;
12220;SDS011;6173;42.024;23.096;2022-09-01T04:59:31;15.67;;;13.87;;
12220;SDS011;6173;42.024;23.096;2022-09-01T05:02:01;24.57;;;16.20;;
12220;SDS011;6173;42.024;23.096;2022-09-01T05:04:33;20.33;;;14.17;;
12220;SDS011;6173;42.024;23.096;2022-09-01T05:07:01;22.53;;;16.30;;
12220;SDS011;6173;42.024;23.096;2022-09-01T05:09:29;16.43;;;12.63;;
12220;SDS011;6173;42.024;23.096;2022-09-01T05:11:59;19.17;;;12.80;;
12220;SDS011;6173;42.024;23.096;2022-09-01T05:14:35;19.53;;;12.67;;
12220;SDS011;6173;42.024;23.096;2022-09-01T05:17:03;17.30;;;13.53;;
12220;SDS011;6173;42.024;23.096;2022-09-01T05:19:34;21.47;;;16.53;;
12220;SDS011;6173;42.024;23.096;2022-09-01T05:22:01;25.13;;;18.33;;
12220;SDS011;6173;42.024;23.096;2022-09-01T05:24:28;28.57;;;20.17;;
12220;SDS011;6173;42.024;23.096;2022-09-01T05:26:56;29.47;;;22.27;;
12220;SDS011;6173;42.024;23.096;2022-09-01T05:29:23;33.73;;;23.53;;
12220;SDS011;6173;42.024;23.096;2022-09-01T05:31:52;31.83;;;23.70;;
12220;SDS011;6173;42.024;23.096;2022-09-01T05:34:21;39.77;;;23.27;;
12220;SDS011;6173;42.024;23.096;2022-09-01T05:36:51;32.67;;;23.80;;
12220;SDS011;6173;42.024;23.096;2022-09-01T05:39:21;35.67;;;24.80;;
12220;SDS011;6173;42.024;23.096;2022-09-01T05:41:49;32.93;;;23.80;;
12220;SDS011;6173;42.024;23.096;2022-09-01T05:44:16;34.33;;;24.53;;
12220;SDS011;6173;42.024;23.096;2022-09-01T05:46:46;32.83;;;25.43;;
12220;SDS011;6173;42.024;23.096;2022-09-01T05:49:14;37.90;;;23.53;;
12220;SDS011;6173;42.024;23.096;2022-09-01T05:51:44;34.40;;;21.90;;
12220;SDS011;6173;42.024;23.096;2022-09-01T05:54:14;33.43;;;21.70;;
12220;SDS011;6173;42.024;23.096;2022-09-01T05:56:41;31.80;;;20.67;;
12220;SDS011;6173;42.024;23.096;2022-09-01T05:59:09;24.10;;;18.13;;
12220;SDS011;6173;42.024;23.096;2022-09-01T06:01:36;25.37;;;18.03;;
12220;SDS011;6173;42.024;23.096;2022-09-01T06:04:06;35.10;;;20.10;;
12220;SDS011;6173;42.024;23.096;2022-09-01T06:06:35;28.17;;;19.37;;
12220;SDS011;6173;42.024;23.096;2022-09-01T06:09:07;27.90;;;19.20;;
12220;SDS011;6173;42.024;23.096;2022-09-01T06:11:34;28.00;;;20.93;;
12220;SDS011;6173;42.024;23.096;2022-09-01T06:14:01;29.85;;;22.02;;
12220;SDS011;6173;42.024;23.096;2022-09-01T06:30:49;25.20;;;21.57;;
12220;SDS011;6173;42.024;23.096;2022-09-01T06:33:17;26.40;;;19.53;;
12220;SDS011;6173;42.024;23.096;2022-09-01T06:35:45;28.13;;;21.20;;
12220;SDS011;6173;42.024;23.096;2022-09-01T06:38:16;29.23;;;21.70;;
12220;SDS011;6173;42.024;23.096;2022-09-01T06:40:45;26.07;;;20.73;;
12220;SDS011;6173;42.024;23.096;2022-09-01T06:43:13;24.43;;;20.40;;
12220;SDS011;6173;42.024;23.096;2022-09-01T06:45:41;35.47;;;21.40;;
12220;SDS011;6173;42.024;23.096;2022-09-01T06:48:10;31.40;;;21.30;;
12220;SDS011;6173;42.024;23.096;2022-09-01T06:50:40;31.63;;;22.43;;
12220;SDS011;6173;42.024;23.096;2022-09-01T06:53:08;30.63;;;23.67;;
12220;SDS011;6173;42.024;23.096;2022-09-01T06:55:35;32.17;;;23.90;;
12220;SDS011;6173;42.024;23.096;2022-09-01T06:58:03;37.77;;;23.80;;
12220;SDS011;6173;42.024;23.096;2022-09-01T07:00:31;27.50;;;22.13;;
12220;SDS011;6173;42.024;23.096;2022-09-01T07:02:59;30.33;;;23.07;;
12220;SDS011;6173;42.024;23.096;2022-09-01T07:05:36;33.07;;;22.47;;
12220;SDS011;6173;42.024;23.096;2022-09-01T07:08:04;32.97;;;22.77;;
12220;SDS011;6173;42.024;23.096;2022-09-01T07:10:38;28.27;;;21.53;;
12220;SDS011;6173;42.024;23.096;2022-09-01T07:13:09;29.13;;;21.87;;
12220;SDS011;6173;42.024;23.096;2022-09-01T07:15:38;30.30;;;20.90;;
12220;SDS011;6173;42.024;23.096;2022-09-01T07:18:05;32.30;;;22.43;;
12220;SDS011;6173;42.024;23.096;2022-09-01T07:20:35;32.50;;;23.73;;
12220;SDS011;6173;42.024;23.096;2022-09-01T07:23:03;34.30;;;23.97;;
12220;SDS011;6173;42.024;23.096;2022-09-01T07:25:31;33.70;;;24.27;;
12220;SDS011;6173;42.024;23.096;2022-09-01T07:28:03;33.90;;;23.20;;
12220;SDS011;6173;42.024;23.096;2022-09-01T07:30:30;36.90;;;24.77;;
12220;SDS011;6173;42.024;23.096;2022-09-01T07:32:59;31.10;;;23.97;;
12220;SDS011;6173;42.024;23.096;2022-09-01T07:35:26;31.60;;;24.67;;
12220;SDS011;6173;42.024;23.096;2022-09-01T07:37:56;30.00;;;24.20;;
12220;SDS011;6173;42.024;23.096;2022-09-01T07:40:23;30.67;;;23.47;;
12220;SDS011;6173;42.024;23.096;2022-09-01T07:42:53;35.47;;;24.77;;
12220;SDS011;6173;42.024;23.096;2022-09-01T07:45:21;28.90;;;22.67;;
12220;SDS011;6173;42.024;23.096;2022-09-01T07:47:50;30.23;;;21.93;;
12220;SDS011;6173;42.024;23.096;2022-09-01T07:50:17;27.43;;;20.97;;
12220;SDS011;6173;42.024;23.096;2022-09-01T07:52:44;36.37;;;22.97;;
12220;SDS011;6173;42.024;23.096;2022-09-01T07:55:15;28.67;;;21.37;;
12220;SDS011;6173;42.024;23.096;2022-09-01T07:57:43;33.28;;;25.30;;
12220;SDS011;6173;42.024;23.096;2022-09-01T08:00:11;28.93;;;22.47;;
12220;SDS011;6173;42.024;23.096;2022-09-01T08:02:39;27.50;;;22.17;;
12220;SDS011;6173;42.024;23.096;2022-09-01T08:05:08;29.27;;;20.67;;
12220;SDS011;6173;42.024;23.096;2022-09-01T08:07:36;31.35;;;22.98;;
12220;SDS011;6173;42.024;23.096;2022-09-01T08:10:05;27.37;;;22.07;;
12220;SDS011;6173;42.024;23.096;2022-09-01T08:12:35;27.17;;;22.40;;
12220;SDS011;6173;42.024;23.096;2022-09-01T08:15:02;25.13;;;21.03;;
12220;SDS011;6173;42.024;23.096;2022-09-01T08:17:29;23.50;;;20.33;;
12220;SDS011;6173;42.024;23.096;2022-09-01T08:19:56;26.77;;;21.10;;
12220;SDS011;6173;42.024;23.096;2022-09-01T08:22:23;32.47;;;21.30;;
12220;SDS011;6173;42.024;23.096;2022-09-01T08:24:50;27.23;;;20.83;;
12220;SDS011;6173;42.024;23.096;2022-09-01T08:27:17;34.30;;;22.20;;
12220;SDS011;6173;42.024;23.096;2022-09-01T08:29:45;24.00;;;21.03;;
12220;SDS011;6173;42.024;23.096;2022-09-01T08:32:12;26.57;;;20.13;;
12220;SDS011;6173;42.024;23.096;2022-09-01T08:34:39;31.13;;;21.70;;
12220;SDS011;6173;42.024;23.096;2022-09-01T08:37:07;27.03;;;20.03;;
12220;SDS011;6173;42.024;23.096;2022-09-01T08:39:34;24.43;;;20.27;;
12220;SDS011;6173;42.024;23.096;2022-09-01T08:42:03;25.10;;;20.77;;
12220;SDS011;6173;42.024;23.096;2022-09-01T08:44:40;24.07;;;20.03;;
12220;SDS011;6173;42.024;23.096;2022-09-01T08:47:14;28.50;;;19.40;;
12220;SDS011;6173;42.024;23.096;2022-09-01T08:49:43;34.20;;;26.65;;
12220;SDS011;6173;42.024;23.096;2022-09-01T08:52:14;35.37;;;23.87;;
12220;SDS011;6173;42.024;23.096;2022-09-01T08:54:48;23.27;;;20.77;;
12220;SDS011;6173;42.024;23.096;2022-09-01T08:57:19;33.37;;;21.47;;
12220;SDS011;6173;42.024;23.096;2022-09-01T08:59:48;21.27;;;18.70;;
12220;SDS011;6173;42.024;23.096;2022-09-01T09:02:23;19.60;;;17.60;;
12220;SDS011;6173;42.024;23.096;2022-09-01T09:05:02;21.37;;;16.30;;
12220;SDS011;6173;42.024;23.096;2022-09-01T09:07:44;19.27;;;16.63;;
12220;SDS011;6173;42.024;23.096;2022-09-01T09:10:24;25.20;;;16.80;;
12220;SDS011;6173;42.024;23.096;2022-09-01T09:12:58;19.10;;;16.43;;
12220;SDS011;6173;42.024;23.096;2022-09-01T09:15:35;21.73;;;17.80;;
12220;SDS011;6173;42.024;23.096;2022-09-01T09:18:12;20.50;;;16.77;;
12220;SDS011;6173;42.024;23.096;2022-09-01T09:20:44;20.37;;;15.43;;
12220;SDS011;6173;42.024;23.096;2022-09-01T09:23:14;19.63;;;14.70;;
12220;SDS011;6173;42.024;23.096;2022-09-01T09:25:46;18.93;;;14.93;;
12220;SDS011;6173;42.024;23.096;2022-09-01T09:28:14;26.10;;;15.20;;
12220;SDS011;6173;42.024;23.096;2022-09-01T09:30:41;23.33;;;16.60;;
12220;SDS011;6173;42.024;23.096;2022-09-01T09:33:08;20.10;;;15.13;;
12220;SDS011;6173;42.024;23.096;2022-09-01T09:35:39;22.77;;;17.00;;
12220;SDS011;6173;42.024;23.096;2022-09-01T09:38:14;21.47;;;15.10;;
12220;SDS011;6173;42.024;23.096;2022-09-01T09:40:56;14.00;;;11.53;;
12220;SDS011;6173;42.024;23.096;2022-09-01T09:43:25;21.13;;;14.67;;
12220;SDS011;6173;42.024;23.096;2022-09-01T09:48:46;23.47;;;12.40;;
12220;SDS011;6173;42.024;23.096;2022-09-01T09:51:16;19.37;;;12.17;;
12220;SDS011;6173;42.024;23.096;2022-09-01T09:53:46;18.43;;;11.57;;
12220;SDS011;6173;42.024;23.096;2022-09-01T09:56:15;14.57;;;11.20;;
12220;SDS011;6173;42.024;23.096;2022-09-01T09:58:44;14.97;;;12.50;;
12220;SDS011;6173;42.024;23.096;2022-09-01T10:01:13;14.83;;;11.67;;
12220;SDS011;6173;42.024;23.096;2022-09-01T10:03:54;18.73;;;13.20;;
12220;SDS011;6173;42.024;23.096;2022-09-01T10:06:30;18.23;;;12.73;;
12220;SDS011;6173;42.024;23.096;2022-09-01T10:08:59;19.30;;;14.83;;
12220;SDS011;6173;42.024;23.096;2022-09-01T10:11:28;17.43;;;12.83;;
12220;SDS011;6173;42.024;23.096;2022-09-01T10:13:59;16.33;;;12.23;;
12220;SDS011;6173;42.024;23.096;2022-09-01T10:16:26;15.37;;;12.27;;
12220;SDS011;6173;42.024;23.096;2022-09-01T10:18:56;47.47;;;14.13;;
12220;SDS011;6173;42.024;23.096;2022-09-01T10:21:34;23.43;;;14.40;;
12220;SDS011;6173;42.024;23.096;2022-09-01T10:26:52;13.97;;;11.73;;
12220;SDS011;6173;42.024;23.096;2022-09-01T10:29:22;14.73;;;13.23;;
12220;SDS011;6173;42.024;23.096;2022-09-01T10:31:52;22.73;;;15.30;;
12220;SDS011;6173;42.024;23.096;2022-09-01T10:34:20;15.27;;;11.90;;
12220;SDS011;6173;42.024;23.096;2022-09-01T10:36:50;13.63;;;11.37;;
12220;SDS011;6173;42.024;23.096;2022-09-01T10:39:18;18.70;;;10.93;;
12220;SDS011;6173;42.024;23.096;2022-09-01T10:41:47;16.53;;;10.67;;
12220;SDS011;6173;42.024;23.096;2022-09-01T10:44:23;13.23;;;10.70;;
12220;SDS011;6173;42.024;23.096;2022-09-01T10:46:54;14.50;;;9.67;;
12220;SDS011;6173;42.024;23.096;2022-09-01T10:55:22;13.10;;;9.30;;
12220;SDS011;6173;42.024;23.096;2022-09-01T10:57:56;11.97;;;9.30;;
12220;SDS011;6173;42.024;23.096;2022-09-01T11:00:48;16.57;;;10.63;;
12220;SDS011;6173;42.024;23.096;2022-09-01T11:06:04;15.53;;;8.83;;
12220;SDS011;6173;42.024;23.096;2022-09-01T11:08:43;14.97;;;9.07;;
12220;SDS011;6173;42.024;23.096;2022-09-01T11:11:15;14.33;;;8.90;;
12220;SDS011;6173;42.024;23.096;2022-09-01T11:13:53;13.63;;;8.80;;
12220;SDS011;6173;42.024;23.096;2022-09-01T11:16:27;10.47;;;7.93;;
12220;SDS011;6173;42.024;23.096;2022-09-01T11:19:15;9.30;;;6.93;;
12220;SDS011;6173;42.024;23.096;2022-09-01T11:22:04;10.23;;;7.27;;
12220;SDS011;6173;42.024;23.096;2022-09-01T11:25:04;7.87;;;6.40;;
12220;SDS011;6173;42.024;23.096;2022-09-01T11:27:56;8.38;;;6.32;;
12220;SDS011;6173;42.024;23.096;2022-09-01T11:30:31;7.00;;;5.80;;
12220;SDS011;6173;42.024;23.096;2022-09-01T11:36:19;8.17;;;5.53;;
12220;SDS011;6173;42.024;23.096;2022-09-01T11:38:54;10.47;;;6.47;;
12220;SDS011;6173;42.024;23.096;2022-09-01T11:41:30;16.03;;;6.87;;
12220;SDS011;6173;42.024;23.096;2022-09-01T11:44:01;12.47;;;6.47;;
12220;SDS011;6173;42.024;23.096;2022-09-01T11:46:36;12.40;;;5.70;;
12220;SDS011;6173;42.024;23.096;2022-09-01T11:49:17;10.43;;;6.13;;
12220;SDS011;6173;42.024;23.096;2022-09-01T11:51:53;9.20;;;6.20;;
12220;SDS011;6173;42.024;23.096;2022-09-01T11:54:21;9.47;;;5.70;;
12220;SDS011;6173;42.024;23.096;2022-09-01T11:56:51;10.40;;;6.17;;
12220;SDS011;6173;42.024;23.096;2022-09-01T11:59:31;9.80;;;6.33;;
12220;SDS011;6173;42.024;23.096;2022-09-01T12:01:59;14.50;;;6.60;;
12220;SDS011;6173;42.024;23.096;2022-09-01T12:04:29;11.10;;;6.60;;
12220;SDS011;6173;42.024;23.096;2022-09-01T12:07:00;7.53;;;6.00;;
12220;SDS011;6173;42.024;23.096;2022-09-01T12:09:33;9.37;;;5.63;;
12220;SDS011;6173;42.024;23.096;2022-09-01T12:12:04;10.90;;;6.50;;
12220;SDS011;6173;42.024;23.096;2022-09-01T12:14:32;11.30;;;6.87;;
12220;SDS011;6173;42.024;23.096;2022-09-01T12:17:00;11.80;;;6.07;;
12220;SDS011;6173;42.024;23.096;2022-09-01T12:19:31;11.77;;;6.43;;
12220;SDS011;6173;42.024;23.096;2022-09-01T12:22:03;6.73;;;5.60;;
12220;SDS011;6173;42.024;23.096;2022-09-01T12:24:38;11.03;;;6.10;;
12220;SDS011;6173;42.024;23.096;2022-09-01T12:27:12;10.05;;;5.95;;
12220;SDS011;6173;42.024;23.096;2022-09-01T12:29:39;8.67;;;5.63;;
12220;SDS011;6173;42.024;23.096;2022-09-01T12:32:06;9.40;;;5.70;;
12220;SDS011;6173;42.024;23.096;2022-09-01T12:34:36;16.73;;;6.50;;
12220;SDS011;6173;42.024;23.096;2022-09-01T12:37:09;9.53;;;5.83;;
12220;SDS011;6173;42.024;23.096;2022-09-01T12:52:24;10.48;;;6.38;;
12220;SDS011;6173;42.024;23.096;2022-09-01T12:54:53;9.63;;;4.83;;
12220;SDS011;6173;42.024;23.096;2022-09-01T12:57:35;10.07;;;5.70;;
12220;SDS011;6173;42.024;23.096;2022-09-01T13:00:05;7.77;;;5.80;;
12220;SDS011;6173;42.024;23.096;2022-09-01T13:02:34;8.40;;;5.87;;
12220;SDS011;6173;42.024;23.096;2022-09-01T13:05:22;9.93;;;5.83;;
12220;SDS011;6173;42.024;23.096;2022-09-01T13:07:53;12.77;;;6.68;;
12220;SDS011;6173;42.024;23.096;2022-09-01T13:10:21;7.80;;;6.17;;
12220;SDS011;6173;42.024;23.096;2022-09-01T13:12:52;8.23;;;5.27;;
12220;SDS011;6173;42.024;23.096;2022-09-01T13:15:19;7.47;;;5.80;;
12220;SDS011;6173;42.024;23.096;2022-09-01T13:17:46;13.40;;;6.20;;
12220;SDS011;6173;42.024;23.096;2022-09-01T13:20:13;12.33;;;6.70;;
12220;SDS011;6173;42.024;23.096;2022-09-01T13:22:40;9.47;;;6.57;;
12220;SDS011;6173;42.024;23.096;2022-09-01T13:25:10;9.47;;;6.60;;
12220;SDS011;6173;42.024;23.096;2022-09-01T13:27:37;10.03;;;7.00;;
12220;SDS011;6173;42.024;23.096;2022-09-01T13:30:09;9.97;;;6.87;;
12220;SDS011;6173;42.024;23.096;2022-09-01T13:32:38;10.73;;;6.57;;
12220;SDS011;6173;42.024;23.096;2022-09-01T13:35:05;8.83;;;7.17;;
12220;SDS011;6173;42.024;23.096;2022-09-01T13:37:32;7.40;;;6.67;;
12220;SDS011;6173;42.024;23.096;2022-09-01T13:40:00;7.60;;;6.80;;
12220;SDS011;6173;42.024;23.096;2022-09-01T13:42:28;8.07;;;6.70;;
12220;SDS011;6173;42.024;23.096;2022-09-01T13:44:55;13.13;;;7.83;;
12220;SDS011;6173;42.024;23.096;2022-09-01T13:47:21;11.30;;;7.60;;
12220;SDS011;6173;42.024;23.096;2022-09-01T13:49:49;12.87;;;7.83;;
12220;SDS011;6173;42.024;23.096;2022-09-01T13:52:16;12.10;;;7.87;;
12220;SDS011;6173;42.024;23.096;2022-09-01T13:54:44;11.20;;;7.50;;
12220;SDS011;6173;42.024;23.096;2022-09-01T13:57:11;8.33;;;7.20;;
12220;SDS011;6173;42.024;23.096;2022-09-01T13:59:40;9.60;;;7.03;;
12220;SDS011;6173;42.024;23.096;2022-09-01T14:02:07;9.53;;;7.50;;
12220;SDS011;6173;42.024;23.096;2022-09-01T14:04:35;15.20;;;7.93;;
12220;SDS011;6173;42.024;23.096;2022-09-01T14:07:02;10.33;;;7.27;;
12220;SDS011;6173;42.024;23.096;2022-09-01T14:09:29;11.37;;;7.83;;
12220;SDS011;6173;42.024;23.096;2022-09-01T14:11:55;9.53;;;7.30;;
12220;SDS011;6173;42.024;23.096;2022-09-01T14:14:23;8.83;;;7.50;;
12220;SDS011;6173;42.024;23.096;2022-09-01T14:16:51;11.80;;;7.73;;
12220;SDS011;6173;42.024;23.096;2022-09-01T14:19:18;10.90;;;7.50;;
12220;SDS011;6173;42.024;23.096;2022-09-01T14:21:47;10.60;;;7.70;;
12220;SDS011;6173;42.024;23.096;2022-09-01T14:24:13;9.57;;;7.10;;
12220;SDS011;6173;42.024;23.096;2022-09-01T14:26:44;8.23;;;7.33;;
12220;SDS011;6173;42.024;23.096;2022-09-01T14:29:10;8.43;;;7.47;;
12220;SDS011;6173;42.024;23.096;2022-09-01T14:31:37;9.10;;;7.80;;
12220;SDS011;6173;42.024;23.096;2022-09-01T14:34:05;11.77;;;8.10;;
12220;SDS011;6173;42.024;23.096;2022-09-01T14:36:32;13.87;;;8.10;;
12220;SDS011;6173;42.024;23.096;2022-09-01T14:38:59;11.63;;;8.20;;
12220;SDS011;6173;42.024;23.096;2022-09-01T14:41:26;10.17;;;8.20;;
12220;SDS011;6173;42.024;23.096;2022-09-01T14:43:53;8.67;;;7.77;;
12220;SDS011;6173;42.024;23.096;2022-09-01T14:46:23;11.77;;;9.07;;
12220;SDS011;6173;42.024;23.096;2022-09-01T14:48:50;10.80;;;8.77;;
12220;SDS011;6173;42.024;23.096;2022-09-01T14:51:20;10.77;;;9.43;;
12220;SDS011;6173;42.024;23.096;2022-09-01T14:53:49;11.00;;;9.63;;
12220;SDS011;6173;42.024;23.096;2022-09-01T14:56:16;16.97;;;10.17;;
12220;SDS011;6173;42.024;23.096;2022-09-01T14:58:43;14.90;;;9.67;;
12220;SDS011;6173;42.024;23.096;2022-09-01T15:01:11;16.27;;;10.27;;
12220;SDS011;6173;42.024;23.096;2022-09-01T15:03:39;11.33;;;9.40;;
12220;SDS011;6173;42.024;23.096;2022-09-01T15:06:07;11.70;;;9.67;;
12220;SDS011;6173;42.024;23.096;2022-09-01T15:08:38;13.40;;;10.60;;
12220;SDS011;6173;42.024;23.096;2022-09-01T15:11:06;11.63;;;9.83;;
12220;SDS011;6173;42.024;23.096;2022-09-01T15:13:35;13.30;;;11.03;;
12220;SDS011;6173;42.024;23.096;2022-09-01T15:16:02;15.07;;;9.47;;
12220;SDS011;6173;42.024;23.096;2022-09-01T15:18:30;10.27;;;9.17;;
12220;SDS011;6173;42.024;23.096;2022-09-01T15:20:57;14.60;;;10.20;;
12220;SDS011;6173;42.024;23.096;2022-09-01T15:23:25;18.70;;;9.63;;
12220;SDS011;6173;42.024;23.096;2022-09-01T15:25:53;13.77;;;10.83;;